No particular awareness of the weather is required.    There are no Weather-warnings


Meteo18 Weather Cam more information Meteo18 Weather Cam


Thunder radar more information blitzortung!


Rain radar more information rain snow radar


Visit our other weather sites:

Template documentation
and downloads

And another site



Weather Underground History page Text

Daily Summary for March 2, 2017 Units:  English    Metric   Both
« Previous Day
Next Day »
Daily Weekly Monthly Yearly Custom
  High: Low: Average:
Temperature: TemperatureC °F 5.2 °F 7.8 °F
Dew Point: DewpointC °F 0.7 °F 4.1 °F
Humidity: Humidity % 53 % 78 %
Wind Speed: WindSpeedKMH mph 0.0 mph 5 mph
Wind Gust: WindSpeedGustKMH mph - -
Wind:- - WSW
Pressure: PressurehPa in 1011.7 in -
Precipitation: 3.0 in    
Historical Graphs
 
 
Tabular Data for March 2, 2017
Time Temperature Dew Point Pressure Wind Wind Speed Wind Gust Humidity Rainfall Rate (Hourly)
TemperatureC °F DewpointC °F PressurehPa in Calm     Humidity % HourlyPrecipMM in
00:02 9.8 °F 8.9 °F 1011.7 in SW 12.9 mph 35.4 mph 94 % 0.8 in
00:12 9.8 °F 8.9 °F 1011.7 in West 17.7 mph 32.2 mph 94 % 0.5 in
00:17 9.8 °F 8.9 °F 1011.7 in WSW 17.7 mph 32.2 mph 94 % 0.5 in
00:22 9.8 °F 8.9 °F 1011.7 in West 16.1 mph 32.2 mph 94 % 0.5 in
00:27 9.8 °F 8.9 °F 1011.7 in SW 12.9 mph 32.2 mph 94 % 0.3 in
00:32 9.8 °F 8.9 °F 1011.7 in WSW 22.5 mph 32.2 mph 94 % 0.3 in
00:37 9.8 °F 8.9 °F 1011.7 in WSW 17.7 mph 32.2 mph 94 % 0.3 in
00:42 9.8 °F 8.9 °F 1012.1 in SW 12.9 mph 32.2 mph 94 % 0.5 in
00:47 9.7 °F 8.8 °F 1012.1 in WSW 11.3 mph 32.2 mph 94 % 0.5 in
00:52 9.7 °F 8.8 °F 1012.1 in West 11.3 mph 30.6 mph 94 % 0.5 in
00:57 9.7 °F 8.9 °F 1012.1 in SW 25.7 mph 30.6 mph 95 % 0.5 in
01:02 9.7 °F 8.9 °F 1012.1 in WSW 14.5 mph 29.0 mph 95 % 0.8 in
01:07 9.7 °F 8.9 °F 1012.1 in WSW 24.1 mph 29.0 mph 95 % 0.8 in
01:12 9.7 °F 8.9 °F 1012.4 in WNW 20.9 mph 29.0 mph 95 % 1.3 in
01:17 9.6 °F 8.8 °F 1012.8 in West 25.7 mph 29.0 mph 95 % 2.0 in
01:22 9.4 °F 8.3 °F 1012.8 in SW 17.7 mph 38.6 mph 93 % 2.5 in
01:27 9.3 °F 8.1 °F 1012.8 in West 19.3 mph 38.6 mph 92 % 2.5 in
01:32 9.3 °F 7.7 °F 1012.8 in West 11.3 mph 38.6 mph 90 % 2.5 in
01:37 9.3 °F 7.9 °F 1012.8 in West 22.5 mph 32.2 mph 91 % 2.5 in
01:42 9.2 °F 7.8 °F 1013.1 in SW 11.3 mph 30.6 mph 91 % 2.3 in
01:47 9.1 °F 7.9 °F 1013.1 in West 11.3 mph 29.0 mph 92 % 2.3 in
01:52 9.1 °F 7.9 °F 1013.4 in WNW 14.5 mph 24.1 mph 92 % 2.3 in
01:57 9.1 °F 7.9 °F 1013.4 in WNW 17.7 mph 22.5 mph 92 % 2.3 in
02:02 8.9 °F 7.5 °F 1013.4 in WNW 16.1 mph 27.4 mph 91 % 2.3 in
02:07 8.9 °F 7.5 °F 1013.8 in WNW 9.7 mph 27.4 mph 91 % 2.3 in
02:12 8.8 °F 7.4 °F 1013.8 in West 8.0 mph 27.4 mph 91 % 1.8 in
02:17 8.8 °F 6.9 °F 1013.8 in WNW 19.3 mph 30.6 mph 88 % 0.5 in
02:22 8.7 °F 6.8 °F 1013.8 in ENE 1.6 mph 30.6 mph 88 % 0.5 in
02:27 8.7 °F 6.7 °F 1013.8 in NW 3.2 mph 30.6 mph 87 % 0.3 in
02:32 8.6 °F 6.6 °F 1013.8 in NW 8.0 mph 24.1 mph 87 % 0.3 in
02:37 8.6 °F 6.7 °F 1014.1 in WNW 3.2 mph 19.3 mph 88 % 0.3 in
02:42 8.5 °F 6.6 °F 1014.1 in WSW 3.2 mph 17.7 mph 88 % 0.3 in
02:47 8.5 °F 6.8 °F 1014.1 in West 8.0 mph 14.5 mph 89 % 0.3 in
02:52 8.5 °F 6.6 °F 1014.1 in WNW 12.9 mph 14.5 mph 88 % 0.0 in
02:57 8.4 °F 6.5 °F 1014.4 in NW 4.8 mph 16.1 mph 88 % 0.0 in
03:02 8.3 °F 6.4 °F 1014.4 in WNW 1.6 mph 16.1 mph 88 % 0.0 in
03:07 8.2 °F 6.3 °F 1014.4 in West 9.7 mph 16.1 mph 88 % 0.0 in
03:12 8.2 °F 6.2 °F 1014.4 in West 6.4 mph 16.1 mph 87 % 0.0 in
03:17 8.1 °F 6.1 °F 1014.4 in NNW 4.8 mph 16.1 mph 87 % 0.0 in
03:22 7.9 °F 5.9 °F 1014.4 in WSW 8.0 mph 17.7 mph 87 % 0.0 in
03:27 7.8 °F 5.8 °F 1014.4 in WNW 6.4 mph 17.7 mph 87 % 0.0 in
03:32 7.7 °F 5.8 °F 1014.8 in WNW 8.0 mph 17.7 mph 88 % 0.0 in
03:37 7.6 °F 5.7 °F 1014.8 in WSW 4.8 mph 12.9 mph 88 % 0.0 in
03:42 7.5 °F 5.6 °F 1014.8 in WSW 4.8 mph 12.9 mph 88 % 0.0 in
03:52 7.3 °F 5.6 °F 1014.8 in WSW 6.4 mph 9.7 mph 89 % 0.0 in
03:57 7.1 °F 5.6 °F 1014.8 in WSW 6.4 mph 12.9 mph 90 % 0.0 in
04:02 7.0 °F 5.5 °F 1014.8 in West 6.4 mph 12.9 mph 90 % 0.0 in
04:07 6.9 °F 5.5 °F 1014.8 in WSW 9.7 mph 12.9 mph 91 % 0.0 in
04:12 6.8 °F 5.4 °F 1014.8 in West 9.7 mph 12.9 mph 91 % 0.0 in
04:17 6.8 °F 5.6 °F 1014.8 in WSW 6.4 mph 12.9 mph 92 % 0.0 in
04:22 6.7 °F 5.5 °F 1015.1 in West 3.2 mph 12.9 mph 92 % 0.0 in
04:27 6.7 °F 5.5 °F 1015.1 in WSW 8.0 mph 11.3 mph 92 % 0.0 in
04:32 6.6 °F 5.4 °F 1015.1 in WSW 6.4 mph 12.9 mph 92 % 0.0 in
04:37 6.6 °F 5.4 °F 1015.1 in WSW 4.8 mph 12.9 mph 92 % 0.0 in
04:42 6.5 °F 5.3 °F 1015.5 in West 3.2 mph 12.9 mph 92 % 0.0 in
04:52 6.4 °F 5.4 °F 1015.5 in West 4.8 mph 12.9 mph 93 % 0.0 in
04:57 6.3 °F 5.3 °F 1015.5 in West 6.4 mph 12.9 mph 93 % 0.0 in
05:02 6.3 °F 5.3 °F 1015.8 in WNW 3.2 mph 12.9 mph 93 % 0.0 in
05:12 6.2 °F 5.2 °F 1015.8 in West 3.2 mph 11.3 mph 93 % 0.0 in
05:17 6.1 °F 5.1 °F 1015.8 in West 4.8 mph 11.3 mph 93 % 0.0 in
05:22 6.1 °F 5.1 °F 1015.8 in WSW 6.4 mph 9.7 mph 93 % 0.0 in
05:27 6.1 °F 5.1 °F 1015.8 in WSW 1.6 mph 8.0 mph 93 % 0.0 in
05:32 6.1 °F 5.1 °F 1016.1 in WSW 1.6 mph 8.0 mph 93 % 0.0 in
05:37 6.1 °F 5.1 °F 1016.1 in WSW 3.2 mph 8.0 mph 93 % 0.0 in
05:42 6.1 °F 5.1 °F 1016.1 in Calm   6.4 mph 93 % 0.0 in
05:52 6.1 °F 5.1 °F 1016.1 in WSW 1.6 mph 6.4 mph 93 % 0.0 in
05:57 6.2 °F 5.2 °F 1016.1 in West 3.2 mph 6.4 mph 93 % 0.0 in
06:02 6.2 °F 5.0 °F 1016.5 in West 8.0 mph 8.0 mph 92 % 0.0 in
06:07 6.1 °F 4.9 °F 1016.5 in West 6.4 mph 9.7 mph 92 % 0.0 in
06:12 6.1 °F 4.7 °F 1016.5 in West 4.8 mph 12.9 mph 91 % 0.0 in
06:17 6.0 °F 4.6 °F 1016.5 in West 4.8 mph 12.9 mph 91 % 0.0 in
06:22 5.9 °F 4.5 °F 1016.5 in West 8.0 mph 8.0 mph 91 % 0.0 in
06:27 5.9 °F 4.5 °F 1016.8 in WSW 6.4 mph 9.7 mph 91 % 0.0 in
06:32 5.8 °F 4.6 °F 1016.8 in West 6.4 mph 9.7 mph 92 % 0.0 in
06:37 5.9 °F 4.7 °F 1016.8 in WNW 6.4 mph 11.3 mph 92 % 0.0 in
06:42 5.9 °F 4.7 °F 1016.8 in West 6.4 mph 11.3 mph 92 % 0.0 in
06:47 6.0 °F 4.8 °F 1017.2 in WNW 11.3 mph 11.3 mph 92 % 0.0 in
06:57 6.0 °F 4.6 °F 1017.2 in WNW 8.0 mph 14.5 mph 91 % 0.0 in
07:02 5.9 °F 4.5 °F 1017.2 in West 8.0 mph 14.5 mph 91 % 0.0 in
07:12 5.7 °F 4.3 °F 1017.2 in West 4.8 mph 12.9 mph 91 % 0.0 in
07:17 5.7 °F 4.3 °F 1017.2 in West 8.0 mph 12.9 mph 91 % 0.0 in
07:22 5.6 °F 4.2 °F 1017.2 in West 6.4 mph 11.3 mph 91 % 0.0 in
07:32 5.4 °F 4.2 °F 1017.5 in West 6.4 mph 16.1 mph 92 % 0.0 in
07:37 5.3 °F 4.1 °F 1017.5 in West 4.8 mph 16.1 mph 92 % 0.0 in
07:42 5.3 °F 4.1 °F 1017.5 in WSW 9.7 mph 14.5 mph 92 % 0.0 in
07:47 5.3 °F 4.1 °F 1017.5 in WSW 11.3 mph 14.5 mph 92 % 0.0 in
07:52 5.2 °F 4.0 °F 1017.8 in West 6.4 mph 14.5 mph 92 % 0.0 in
07:57 5.2 °F 4.0 °F 1017.8 in SW 9.7 mph 14.5 mph 92 % 0.0 in
08:02 5.2 °F 4.0 °F 1017.8 in WSW 9.7 mph 16.1 mph 92 % 0.0 in
08:07 5.2 °F 4.0 °F 1018.2 in West 8.0 mph 16.1 mph 92 % 0.0 in
08:12 5.2 °F 4.0 °F 1018.2 in WSW 8.0 mph 17.7 mph 92 % 0.0 in
08:17 5.2 °F 4.0 °F 1018.2 in WNW 4.8 mph 17.7 mph 92 % 0.0 in
08:22 5.2 °F 4.0 °F 1018.5 in WNW 8.0 mph 17.7 mph 92 % 0.0 in
08:27 5.2 °F 4.0 °F 1018.5 in West 1.6 mph 11.3 mph 92 % 0.0 in
08:32 5.2 °F 4.0 °F 1018.5 in Calm   9.7 mph 92 % 0.0 in
08:37 5.2 °F 4.0 °F 1018.5 in West 4.8 mph 9.7 mph 92 % 0.0 in
08:42 5.3 °F 4.1 °F 1018.8 in Calm   8.0 mph 92 % 0.0 in
08:52 5.4 °F 4.2 °F 1018.8 in Calm   8.0 mph 92 % 0.0 in
08:57 5.6 °F 4.4 °F 1019.2 in Calm   4.8 mph 92 % 0.0 in
09:02 5.7 °F 4.5 °F 1019.2 in Calm   4.8 mph 92 % 0.0 in
09:12 6.0 °F 4.8 °F 1019.2 in SE 1.6 mph 3.2 mph 92 % 0.0 in
09:17 6.2 °F 5.0 °F 1019.5 in Calm   3.2 mph 92 % 0.0 in
09:22 6.3 °F 4.9 °F 1019.5 in Calm   3.2 mph 91 % 0.0 in
09:27 6.5 °F 5.1 °F 1019.5 in WSW 1.6 mph 3.2 mph 91 % 0.0 in
09:32 6.5 °F 4.8 °F 1019.5 in SSW 4.8 mph 4.8 mph 89 % 0.0 in
09:37 6.7 °F 5.0 °F 1019.9 in West 1.6 mph 6.4 mph 89 % 0.0 in
09:42 6.8 °F 5.1 °F 1019.9 in South 1.6 mph 6.4 mph 89 % 0.0 in
09:47 6.8 °F 5.1 °F 1019.9 in SW 4.8 mph 4.8 mph 89 % 0.0 in
09:52 6.8 °F 5.0 °F 1019.9 in SW 3.2 mph 4.8 mph 88 % 0.0 in
09:57 6.9 °F 5.2 °F 1019.9 in WSW 6.4 mph 8.0 mph 89 % 0.0 in
10:02 7.1 °F 5.4 °F 1019.9 in SW 1.6 mph 8.0 mph 89 % 0.0 in
10:07 7.2 °F 5.2 °F 1019.9 in West 3.2 mph 8.0 mph 87 % 0.0 in
10:12 7.2 °F 5.0 °F 1019.9 in WSW 8.0 mph 8.0 mph 86 % 0.0 in
10:17 7.2 °F 5.0 °F 1020.2 in West 3.2 mph 9.7 mph 86 % 0.0 in
10:22 7.2 °F 5.0 °F 1020.2 in WSW 6.4 mph 9.7 mph 86 % 0.0 in
10:32 7.1 °F 4.7 °F 1020.2 in Calm   9.7 mph 85 % 0.0 in
10:37 7.3 °F 4.9 °F 1020.2 in SSW 3.2 mph 11.3 mph 85 % 0.0 in
10:42 7.6 °F 5.2 °F 1020.2 in West 3.2 mph 11.3 mph 85 % 0.0 in
10:47 7.7 °F 5.0 °F 1020.2 in West 4.8 mph 8.0 mph 83 % 0.0 in
10:57 7.9 °F 5.2 °F 1020.5 in Calm   11.3 mph 83 % 0.0 in
11:02 8.1 °F 4.7 °F 1020.5 in West 3.2 mph 11.3 mph 79 % 0.0 in
11:07 8.1 °F 4.9 °F 1020.5 in West 3.2 mph 11.3 mph 80 % 0.0 in
11:12 8.2 °F 4.2 °F 1020.5 in West 3.2 mph 8.0 mph 76 % 0.0 in
11:17 8.5 °F 4.5 °F 1020.5 in West 4.8 mph 8.0 mph 76 % 0.0 in
11:22 8.4 °F 3.8 °F 1020.9 in West 8.0 mph 8.0 mph 73 % 0.0 in
11:32 8.3 °F 3.1 °F 1020.9 in NW 6.4 mph 16.1 mph 70 % 0.0 in
11:37 8.4 °F 2.8 °F 1020.9 in WNW 9.7 mph 17.7 mph 68 % 0.0 in
11:42 8.5 °F 2.7 °F 1020.9 in West 1.6 mph 17.7 mph 67 % 0.0 in
11:47 8.5 °F 3.3 °F 1020.9 in North 4.8 mph 16.1 mph 70 % 0.0 in
11:52 8.7 °F 2.7 °F 1020.9 in NNW 1.6 mph 12.9 mph 66 % 0.0 in
11:57 8.7 °F 3.1 °F 1020.9 in West 3.2 mph 11.3 mph 68 % 0.0 in
12:02 8.7 °F 2.5 °F 1020.9 in WSW 4.8 mph 11.3 mph 65 % 0.0 in
12:07 8.8 °F 3.4 °F 1020.9 in West 1.6 mph 9.7 mph 69 % 0.0 in
12:12 8.8 °F 3.0 °F 1020.9 in WSW 3.2 mph 9.7 mph 67 % 0.0 in
12:17 8.8 °F 2.6 °F 1020.9 in WSW 3.2 mph 8.0 mph 65 % 0.0 in
12:22 8.9 °F 2.9 °F 1020.9 in West 4.8 mph 12.9 mph 66 % 0.0 in
12:27 9.1 °F 3.1 °F 1020.9 in SW 4.8 mph 12.9 mph 66 % 0.0 in
12:32 9.1 °F 2.0 °F 1020.9 in WNW 4.8 mph 9.7 mph 61 % 0.0 in
12:37 9.1 °F 2.4 °F 1020.9 in WNW 1.6 mph 9.7 mph 63 % 0.0 in
12:42 9.2 °F 2.5 °F 1020.5 in NW 1.6 mph 9.7 mph 63 % 0.0 in
12:47 9.3 °F 2.6 °F 1020.5 in WSW 3.2 mph 9.7 mph 63 % 0.0 in
12:52 9.6 °F 3.1 °F 1020.9 in West 6.4 mph 9.7 mph 64 % 0.0 in
12:57 9.5 °F 2.8 °F 1020.5 in Calm   9.7 mph 63 % 0.0 in
13:02 9.9 °F 2.5 °F 1020.5 in Calm   9.7 mph 60 % 0.0 in
13:07 10.2 °F 2.8 °F 1020.5 in WSW 6.4 mph 8.0 mph 60 % 0.0 in
13:12 10.2 °F 1.8 °F 1020.5 in SW 3.2 mph 9.7 mph 56 % 0.0 in
13:22 9.8 °F 0.7 °F 1020.5 in WSW 3.2 mph 11.3 mph 53 % 0.0 in
13:32 9.9 °F 1.0 °F 1020.5 in West 3.2 mph 9.7 mph 54 % 0.0 in
13:37 9.8 °F 1.4 °F 1020.2 in SW 4.8 mph 8.0 mph 56 % 0.0 in
13:42 9.9 °F 3.4 °F 1020.2 in SW 9.7 mph 9.7 mph 64 % 0.0 in
13:47 10.1 °F 4.0 °F 1020.2 in SSW 1.6 mph 9.7 mph 66 % 0.0 in
13:52 10.1 °F 2.4 °F 1020.2 in SW 8.0 mph 9.7 mph 59 % 0.0 in
13:57 10.4 °F 3.0 °F 1020.2 in SW 9.7 mph 12.9 mph 60 % 0.0 in
14:02 10.2 °F 1.8 °F 1020.2 in SSW 3.2 mph 14.5 mph 56 % 0.0 in
14:07 10.3 °F 2.6 °F 1020.2 in SW 4.8 mph 14.5 mph 59 % 0.0 in
14:12 10.2 °F 2.3 °F 1019.9 in South 8.0 mph 17.7 mph 58 % 0.0 in
14:17 10.3 °F 3.1 °F 1019.9 in SSW 8.0 mph 17.7 mph 61 % 0.0 in
14:22 10.3 °F 2.6 °F 1019.9 in SSE 6.4 mph 17.7 mph 59 % 0.0 in
14:27 10.2 °F 3.2 °F 1019.9 in SSW 6.4 mph 17.7 mph 62 % 0.0 in
14:32 10.2 °F 3.2 °F 1019.9 in SSW 9.7 mph 17.7 mph 62 % 0.0 in
14:37 10.1 °F 3.6 °F 1019.9 in SW 8.0 mph 17.7 mph 64 % 0.0 in
14:42 10.1 °F 2.7 °F 1019.9 in SW 17.7 mph 17.7 mph 60 % 0.0 in
14:49 10.1 °F 2.0 °F 1019.9 in SSW 12.9 mph 19.3 mph 57 % 0.0 in
14:57 10.2 °F 2.3 °F 1019.9 in SSW 11.3 mph 19.3 mph 58 % 0.0 in
15:02 10.1 °F 2.0 °F 1019.9 in SSW 11.3 mph 14.5 mph 57 % 0.0 in
15:07 10.1 °F 2.0 °F 1019.9 in SSW 6.4 mph 14.5 mph 57 % 0.0 in
15:12 10.1 °F 3.1 °F 1019.9 in SW 8.0 mph 14.5 mph 62 % 0.0 in
15:17 10.1 °F 2.2 °F 1019.9 in WSW 6.4 mph 14.5 mph 58 % 0.0 in
15:22 10.2 °F 2.3 °F 1019.9 in West 3.2 mph 14.5 mph 58 % 0.0 in
15:32 10.2 °F 2.5 °F 1019.5 in SW 11.3 mph 12.9 mph 59 % 0.0 in
15:37 10.1 °F 2.2 °F 1019.5 in SW 3.2 mph 12.9 mph 58 % 0.0 in
15:42 10.2 °F 2.5 °F 1019.5 in SSW 4.8 mph 12.9 mph 59 % 0.0 in
15:47 10.2 °F 2.3 °F 1019.5 in SSW 6.4 mph 12.9 mph 58 % 0.0 in
15:52 10.2 °F 1.8 °F 1019.5 in SW 4.8 mph 11.3 mph 56 % 0.0 in
15:57 10.2 °F 1.8 °F 1019.5 in SSW 1.6 mph 16.1 mph 56 % 0.0 in
16:02 10.3 °F 1.7 °F 1019.5 in South 8.0 mph 16.1 mph 55 % 0.0 in
16:07 10.3 °F 1.9 °F 1019.5 in SSW 6.4 mph 14.5 mph 56 % 0.0 in
16:12 10.3 °F 1.4 °F 1019.5 in SSW 3.2 mph 14.5 mph 54 % 0.0 in
16:17 10.2 °F 1.3 °F 1019.2 in SSW 8.0 mph 14.5 mph 54 % 0.0 in
16:22 10.2 °F 2.1 °F 1019.5 in SSW 6.4 mph 12.9 mph 57 % 0.0 in
16:27 10.2 °F 2.5 °F 1019.2 in South 8.0 mph 11.3 mph 59 % 0.0 in
16:32 10.1 °F 2.4 °F 1019.2 in South 3.2 mph 12.9 mph 59 % 0.0 in
16:37 10.0 °F 1.6 °F 1019.2 in SW 3.2 mph 12.9 mph 56 % 0.0 in
16:42 10.0 °F 2.8 °F 1019.2 in SSW 1.6 mph 12.9 mph 61 % 0.0 in
16:47 10.0 °F 2.4 °F 1019.2 in South 3.2 mph 11.3 mph 59 % 0.0 in
16:52 10.1 °F 2.9 °F 1019.2 in South 3.2 mph 11.3 mph 61 % 0.0 in
16:57 9.9 °F 2.3 °F 1019.2 in South 6.4 mph 11.3 mph 59 % 0.0 in
17:02 9.9 °F 2.3 °F 1018.8 in SSW 4.8 mph 11.3 mph 59 % 0.0 in
17:07 9.9 °F 2.7 °F 1018.8 in SSW 4.8 mph 11.3 mph 61 % 0.0 in
17:12 9.8 °F 1.4 °F 1018.8 in SSW 6.4 mph 11.3 mph 56 % 0.0 in
17:17 9.8 °F 1.7 °F 1018.8 in SSW 4.8 mph 11.3 mph 57 % 0.0 in
17:22 9.8 °F 1.7 °F 1018.8 in SSW 6.4 mph 9.7 mph 57 % 0.0 in
17:32 9.8 °F 2.9 °F 1018.8 in SSW 1.6 mph 8.0 mph 62 % 0.0 in
17:42 9.7 °F 2.5 °F 1018.8 in SSW 1.6 mph 8.0 mph 61 % 0.0 in
17:47 9.6 °F 3.1 °F 1018.8 in Calm   4.8 mph 64 % 0.0 in
17:52 9.6 °F 2.9 °F 1018.8 in SSW 1.6 mph 4.8 mph 63 % 0.0 in
17:57 9.5 °F 3.0 °F 1018.8 in Calm   4.8 mph 64 % 0.0 in
18:02 9.4 °F 2.7 °F 1018.8 in Calm   1.6 mph 63 % 0.0 in
18:07 9.4 °F 2.9 °F 1018.8 in Calm   1.6 mph 64 % 0.0 in
18:12 9.3 °F 3.1 °F 1018.8 in Calm   1.6 mph 65 % 0.0 in
18:17 9.2 °F 3.2 °F 1018.8 in Calm   1.6 mph 66 % 0.0 in
18:22 9.1 °F 3.5 °F 1018.8 in Calm     68 % 0.0 in
18:32 8.8 °F 3.6 °F 1018.5 in Calm     70 % 0.0 in
18:42 8.6 °F 3.6 °F 1018.5 in Calm     71 % 0.0 in
18:47 8.4 °F 3.2 °F 1018.5 in Calm     70 % 0.0 in
18:52 8.3 °F 3.4 °F 1018.8 in Calm     71 % 0.0 in
18:57 8.3 °F 3.4 °F 1018.8 in Calm     71 % 0.0 in
19:02 8.2 °F 3.3 °F 1018.8 in Calm     71 % 0.0 in
19:07 8.2 °F 3.3 °F 1018.8 in Calm     71 % 0.0 in
19:12 8.1 °F 3.2 °F 1018.8 in Calm     71 % 0.0 in
19:17 8.0 °F 2.9 °F 1018.8 in Calm     70 % 0.0 in
19:22 7.9 °F 2.6 °F 1018.8 in Calm     69 % 0.0 in
19:27 7.9 °F 2.8 °F 1018.5 in Calm     70 % 0.0 in
19:32 7.8 °F 2.9 °F 1018.5 in Calm     71 % 0.0 in
19:37 7.7 °F 3.0 °F 1018.5 in Calm     72 % 0.0 in
19:42 7.6 °F 2.7 °F 1018.5 in Calm     71 % 0.0 in
19:47 7.4 °F 2.7 °F 1018.5 in Calm     72 % 0.0 in
19:52 7.1 °F 2.4 °F 1018.5 in Calm     72 % 0.0 in
19:57 7.0 °F 2.9 °F 1018.2 in Calm     75 % 0.0 in
20:02 6.8 °F 2.7 °F 1018.2 in Calm     75 % 0.0 in
20:07 6.9 °F 3.0 °F 1018.2 in Calm     76 % 0.0 in
20:12 6.9 °F 2.6 °F 1018.2 in Calm     74 % 0.0 in
20:17 6.9 °F 2.6 °F 1017.8 in Calm     74 % 0.0 in
20:22 6.9 °F 2.8 °F 1017.8 in Calm     75 % 0.0 in
20:27 6.9 °F 2.6 °F 1017.8 in Calm     74 % 0.0 in
20:32 6.9 °F 2.8 °F 1017.8 in Calm     75 % 0.0 in
20:37 6.9 °F 2.8 °F 1017.8 in Calm     75 % 0.0 in
20:42 6.7 °F 3.1 °F 1017.8 in Calm     78 % 0.0 in
20:47 6.5 °F 3.5 °F 1017.8 in Calm     81 % 0.0 in
20:52 6.4 °F 3.0 °F 1017.8 in Calm     79 % 0.0 in
20:57 6.7 °F 3.0 °F 1017.5 in Calm     77 % 0.0 in
21:02 6.7 °F 3.5 °F 1017.8 in Calm     80 % 0.0 in
21:07 6.3 °F 3.3 °F 1017.5 in Calm     81 % 0.0 in
21:12 6.3 °F 3.1 °F 1017.5 in Calm     80 % 0.0 in
21:17 6.3 °F 2.9 °F 1017.5 in Calm     79 % 0.0 in
21:22 6.3 °F 2.7 °F 1017.2 in ENE 3.2 mph   78 % 0.0 in
21:27 6.4 °F 2.8 °F 1017.2 in ENE 1.6 mph 4.8 mph 78 % 0.0 in
21:32 6.4 °F 3.2 °F 1017.2 in Calm   4.8 mph 80 % 0.0 in
21:37 6.2 °F 3.0 °F 1017.2 in NNE 1.6 mph 4.8 mph 80 % 0.0 in
21:42 6.3 °F 2.9 °F 1017.2 in Calm   1.6 mph 79 % 0.0 in
21:47 6.3 °F 2.6 °F 1017.2 in Calm   1.6 mph 77 % 0.0 in
21:52 6.3 °F 2.6 °F 1017.2 in Calm   1.6 mph 77 % 0.0 in
22:02 6.2 °F 3.0 °F 1017.2 in Calm   1.6 mph 80 % 0.0 in
22:07 6.1 °F 2.9 °F 1016.8 in North 1.6 mph 1.6 mph 80 % 0.0 in
22:12 6.1 °F 2.9 °F 1016.8 in Calm   1.6 mph 80 % 0.0 in
22:17 6.1 °F 2.7 °F 1016.8 in Calm   1.6 mph 79 % 0.0 in
22:22 6.2 °F 2.6 °F 1016.8 in Calm   1.6 mph 78 % 0.0 in
22:27 6.3 °F 2.6 °F 1016.5 in Calm   1.6 mph 77 % 0.0 in
22:32 6.3 °F 2.7 °F 1016.5 in Calm   1.6 mph 78 % 0.0 in
22:42 6.1 °F 2.7 °F 1016.5 in North 1.6 mph 1.6 mph 79 % 0.0 in
22:47 6.0 °F 2.6 °F 1016.5 in NNW 1.6 mph 1.6 mph 79 % 0.0 in
22:52 5.9 °F 2.5 °F 1016.1 in Calm   1.6 mph 79 % 0.0 in
22:57 6.1 °F 2.4 °F 1016.1 in Calm   1.6 mph 77 % 0.0 in
23:02 6.3 °F 2.4 °F 1015.8 in Calm   1.6 mph 76 % 0.0 in
23:07 6.3 °F 2.4 °F 1015.8 in Calm   1.6 mph 76 % 0.0 in
23:12 6.1 °F 2.7 °F 1015.8 in Calm   1.6 mph 79 % 0.0 in
23:22 5.9 °F 2.5 °F 1015.8 in NNE 1.6 mph 3.2 mph 79 % 0.0 in
23:27 6.1 °F 2.6 °F 1015.5 in Calm   3.2 mph 78 % 0.0 in
23:32 6.1 °F 2.6 °F 1015.8 in Calm   3.2 mph 78 % 0.0 in
23:37 5.9 °F 2.4 °F 1015.5 in Calm   3.2 mph 78 % 0.0 in
23:42 6.0 °F 2.5 °F 1015.5 in Calm   1.6 mph 78 % 0.0 in
23:47 5.9 °F 2.7 °F 1015.5 in WNW 1.6 mph 1.6 mph 80 % 0.0 in
23:52 5.8 °F 2.6 °F 1015.5 in NW 1.6 mph 1.6 mph 80 % 0.0 in
23:57 5.9 °F 2.7 °F 1015.5 in NNW 1.6 mph 1.6 mph 80 % 0.0 in
Meteo18
Compliments of Weather Underground - 4 mb

Script developed by  Jim McMurry - jmcmurry@mwt.net Adapted for the template by  Wim van der Kuil - Leuven-Template.eu

You find our weather info also at:

European Weather Network

Weather Underground

Equipment we use:

Weather-station
Davis Vue

Weather-program
Meteobridge

Weather-server
Raspberry PI 2 B+

Provider
1 and 1

Davis Vue

Meteobridge

Raspberry PI 2 B+

1 and 1